createdAt,value
2019-05-09T00:00:37.171Z,12.30
2019-05-09T00:03:08.044Z,12.23
2019-05-09T00:05:39.055Z,12.24
2019-05-09T00:08:09.865Z,12.25
2019-05-09T00:10:41.949Z,12.17
2019-05-09T00:13:13.772Z,12.20
2019-05-09T00:15:44.717Z,12.15
2019-05-09T00:18:15.552Z,12.11
2019-05-09T00:20:55.554Z,12.10
2019-05-09T00:23:27.520Z,12.09
2019-05-09T00:25:58.333Z,12.07
2019-05-09T00:28:33.723Z,12.04
2019-05-09T00:31:08.059Z,12.05
2019-05-09T00:33:39.789Z,12.03
2019-05-09T00:36:10.559Z,11.99
2019-05-09T00:38:45.849Z,11.98
2019-05-09T00:41:16.592Z,11.96
2019-05-09T00:43:54.308Z,11.91
2019-05-09T00:46:38.744Z,11.87
2019-05-09T00:49:17.716Z,11.93
2019-05-09T00:51:48.506Z,11.87
2019-05-09T00:54:19.341Z,11.78
2019-05-09T00:56:50.400Z,11.78
2019-05-09T00:59:21.211Z,11.78
2019-05-09T01:01:54.136Z,11.78
2019-05-09T01:04:24.623Z,11.77
2019-05-09T01:06:55.387Z,11.72
2019-05-09T01:09:26.369Z,11.75
2019-05-09T01:11:57.181Z,11.72
2019-05-09T01:14:27.950Z,11.74
2019-05-09T01:16:58.773Z,11.71
2019-05-09T01:19:29.580Z,11.73
2019-05-09T01:22:00.373Z,11.73
2019-05-09T01:24:33.786Z,11.78
2019-05-09T01:27:04.389Z,11.76
2019-05-09T01:29:35.314Z,11.77
2019-05-09T01:32:14.422Z,11.78
2019-05-09T01:34:45.374Z,11.80
2019-05-09T01:37:16.163Z,11.79
2019-05-09T01:39:47.061Z,11.77
2019-05-09T01:42:17.999Z,11.76
2019-05-09T01:44:48.943Z,11.74
2019-05-09T01:47:19.783Z,11.74
2019-05-09T01:49:51.277Z,11.69
2019-05-09T01:52:23.206Z,11.70
2019-05-09T01:54:54.218Z,11.68
2019-05-09T01:57:25.158Z,11.63
2019-05-09T01:59:56.028Z,11.56
2019-05-09T02:02:26.850Z,11.58
2019-05-09T02:04:57.788Z,11.53
2019-05-09T02:07:28.745Z,11.53
2019-05-09T02:09:59.615Z,11.50
2019-05-09T02:12:30.563Z,11.48
2019-05-09T02:15:08.098Z,11.45
2019-05-09T02:17:58.814Z,11.44
2019-05-09T02:20:24.308Z,11.45
2019-05-09T02:22:55.012Z,11.48
2019-05-09T02:25:25.974Z,11.47
2019-05-09T02:27:56.745Z,11.42
2019-05-09T02:30:27.632Z,11.37
2019-05-09T02:32:58.503Z,11.36
2019-05-09T02:35:36.555Z,11.32
2019-05-09T02:38:01.843Z,11.28
2019-05-09T02:40:32.532Z,11.27
2019-05-09T02:43:03.315Z,11.32
2019-05-09T02:45:41.038Z,11.30
2019-05-09T02:48:11.832Z,11.26
2019-05-09T02:50:42.466Z,11.21
2019-05-09T02:53:13.124Z,11.25
2019-05-09T02:55:43.809Z,11.23
2019-05-09T02:58:20.271Z,11.26
2019-05-09T03:01:03.279Z,11.18
2019-05-09T03:03:39.260Z,11.13
2019-05-09T03:06:09.462Z,11.12
2019-05-09T03:08:40.235Z,11.17
2019-05-09T03:11:10.883Z,11.13
2019-05-09T03:13:41.537Z,11.10
2019-05-09T03:16:15.119Z,11.12
2019-05-09T03:18:45.751Z,11.09
2019-05-09T03:21:25.358Z,11.11
2019-05-09T03:23:58.918Z,11.07
2019-05-09T03:26:32.200Z,11.07
2019-05-09T03:29:11.944Z,11.08
2019-05-09T03:31:43.568Z,11.09
2019-05-09T03:34:14.265Z,11.10
2019-05-09T03:36:44.943Z,11.11
2019-05-09T03:39:15.580Z,11.14
2019-05-09T03:41:48.519Z,11.12
2019-05-09T03:44:18.474Z,11.08
2019-05-09T03:46:58.475Z,11.02
2019-05-09T03:49:29.068Z,10.96
2019-05-09T03:51:59.684Z,10.94
2019-05-09T03:54:30.289Z,10.93
2019-05-09T03:57:11.187Z,10.91
2019-05-09T03:59:41.590Z,10.89
2019-05-09T04:02:12.245Z,10.89
2019-05-09T04:04:42.838Z,10.84
2019-05-09T04:07:13.514Z,10.80
2019-05-09T04:09:44.180Z,10.78
2019-05-09T04:12:14.864Z,10.79
2019-05-09T04:14:47.513Z,10.77
2019-05-09T04:17:18.284Z,10.77
2019-05-09T04:19:48.968Z,10.83
2019-05-09T04:22:19.508Z,10.79
2019-05-09T04:24:50.648Z,10.82
2019-05-09T04:27:29.697Z,10.79
2019-05-09T04:29:58.898Z,10.86
2019-05-09T04:32:29.358Z,10.85
2019-05-09T04:35:00.044Z,10.87
2019-05-09T04:37:31.175Z,10.87
2019-05-09T04:40:03.424Z,10.86
2019-05-09T04:42:34.996Z,10.90
2019-05-09T04:45:22.476Z,10.90
2019-05-09T04:47:53.153Z,10.95
2019-05-09T04:50:25.075Z,10.97
2019-05-09T04:52:57.986Z,10.94
2019-05-09T04:55:30.642Z,10.99
2019-05-09T04:58:01.339Z,10.99
2019-05-09T05:00:50.846Z,11.00
2019-05-09T05:03:21.598Z,10.92
2019-05-09T05:05:52.468Z,10.89
2019-05-09T05:08:22.909Z,10.85
2019-05-09T05:10:53.308Z,10.81
2019-05-09T05:13:26.755Z,10.77
2019-05-09T05:15:57.825Z,10.71
2019-05-09T05:18:28.567Z,10.75
2019-05-09T05:20:59.318Z,10.63
2019-05-09T05:23:38.073Z,10.54
2019-05-09T05:26:10.320Z,10.59
2019-05-09T05:28:40.979Z,10.57
2019-05-09T05:31:11.900Z,10.61
2019-05-09T05:33:53.912Z,10.64
2019-05-09T05:36:24.016Z,10.68
2019-05-09T05:38:54.696Z,10.74
2019-05-09T05:41:25.327Z,10.77
2019-05-09T05:43:58.010Z,10.78
2019-05-09T05:46:50.548Z,10.78
2019-05-09T05:49:19.488Z,10.72
2019-05-09T05:51:50.145Z,10.62
2019-05-09T05:54:22.169Z,10.58
2019-05-09T05:56:52.989Z,10.53
2019-05-09T05:59:23.626Z,10.51
2019-05-09T06:01:58.664Z,10.44
2019-05-09T06:04:30.508Z,10.38
2019-05-09T06:07:01.218Z,10.38
2019-05-09T06:09:32.038Z,10.34
2019-05-09T06:12:02.917Z,10.36
2019-05-09T06:14:33.823Z,10.35
2019-05-09T06:17:04.708Z,10.25
2019-05-09T06:19:37.959Z,10.27
2019-05-09T06:22:08.498Z,10.25
2019-05-09T06:24:39.290Z,10.25
2019-05-09T06:27:10.731Z,10.12
2019-05-09T06:29:41.509Z,10.10
2019-05-09T06:32:12.263Z,10.06
2019-05-09T06:34:43.094Z,10.02
2019-05-09T06:37:13.973Z,10.12
2019-05-09T06:39:45.182Z,10.07
2019-05-09T06:42:18.095Z,10.05
2019-05-09T06:45:07.742Z,10.06
2019-05-09T06:47:42.073Z,10.02
2019-05-09T06:50:14.919Z,9.98
2019-05-09T06:52:47.847Z,10.01
2019-05-09T06:55:18.617Z,9.99
2019-05-09T06:57:49.429Z,9.99
2019-05-09T07:00:37.937Z,9.99
2019-05-09T07:03:14.377Z,10.06
2019-05-09T07:06:04.075Z,10.10
2019-05-09T07:08:47.525Z,10.14
2019-05-09T07:11:27.990Z,10.19
2019-05-09T07:13:59.282Z,10.24
2019-05-09T07:16:30.599Z,10.26
2019-05-09T07:19:01.871Z,10.22
2019-05-09T07:21:51.791Z,10.29
2019-05-09T07:24:23.596Z,10.22
2019-05-09T07:26:54.976Z,10.23
2019-05-09T07:29:28.463Z,10.13
2019-05-09T07:32:07.407Z,10.07
2019-05-09T07:34:42.551Z,10.24
2019-05-09T07:37:14.214Z,10.29
2019-05-09T07:39:45.538Z,10.39
2019-05-09T07:42:18.018Z,10.30
2019-05-09T07:44:52.471Z,10.35
2019-05-09T07:47:23.355Z,10.24
2019-05-09T07:49:54.642Z,10.25
2019-05-09T07:52:28.236Z,10.15
2019-05-09T07:54:59.222Z,10.13
2019-05-09T07:57:31.389Z,10.11
2019-05-09T08:00:02.918Z,10.12
2019-05-09T08:02:34.418Z,10.09
2019-05-09T08:05:08.382Z,10.16
2019-05-09T08:07:39.679Z,10.14
2019-05-09T08:10:11.822Z,10.20
2019-05-09T08:12:43.881Z,10.27
2019-05-09T08:15:17.482Z,10.19
2019-05-09T08:17:48.825Z,10.18
2019-05-09T08:20:23.493Z,10.20
2019-05-09T08:23:01.876Z,10.23
2019-05-09T08:25:30.962Z,10.18
2019-05-09T08:28:02.047Z,10.26
2019-05-09T08:30:36.259Z,10.26
2019-05-09T08:33:08.282Z,10.07
2019-05-09T08:35:38.489Z,10.05
2019-05-09T08:38:09.973Z,10.11
2019-05-09T08:40:40.831Z,10.00
2019-05-09T08:43:12.523Z,9.91
2019-05-09T08:45:43.735Z,9.92
2019-05-09T08:48:18.290Z,9.94
2019-05-09T08:50:53.024Z,9.89
2019-05-09T08:53:24.445Z,9.83
2019-05-09T08:55:57.866Z,9.91
2019-05-09T08:58:29.349Z,9.85
2019-05-09T09:01:04.125Z,9.84
2019-05-09T09:03:34.084Z,9.87
2019-05-09T09:06:08.493Z,9.95
2019-05-09T09:08:40.079Z,9.97
2019-05-09T09:11:11.521Z,10.02
2019-05-09T09:13:42.817Z,9.92
2019-05-09T09:16:19.961Z,9.97
2019-05-09T09:18:48.213Z,9.99
2019-05-09T09:21:20.562Z,9.94
2019-05-09T09:23:52.758Z,10.00
2019-05-09T09:26:24.173Z,10.01
2019-05-09T09:28:57.581Z,9.98
2019-05-09T09:31:32.414Z,10.02
2019-05-09T09:34:04.274Z,9.99
2019-05-09T09:36:38.863Z,9.95
2019-05-09T09:39:09.714Z,9.99
2019-05-09T09:41:41.333Z,9.99
2019-05-09T09:44:12.054Z,10.04
2019-05-09T09:46:43.888Z,10.06
2019-05-09T09:49:17.967Z,10.06
2019-05-09T09:51:49.357Z,10.12
2019-05-09T09:54:21.198Z,10.12
2019-05-09T09:56:54.675Z,10.06
2019-05-09T09:59:48.123Z,9.98
2019-05-09T10:02:21.555Z,9.99
2019-05-09T10:04:53.108Z,10.09
2019-05-09T10:07:24.867Z,10.06
2019-05-09T10:09:58.377Z,10.09
2019-05-09T10:12:30.547Z,10.11
2019-05-09T10:15:18.881Z,10.12
2019-05-09T10:17:58.260Z,10.17
2019-05-09T10:20:38.492Z,10.25
2019-05-09T10:23:17.859Z,10.27
2019-05-09T10:25:44.206Z,10.34
2019-05-09T10:28:21.464Z,10.40
2019-05-09T10:30:50.210Z,10.38
2019-05-09T10:33:22.255Z,10.37
2019-05-09T10:35:54.344Z,10.38
2019-05-09T10:38:27.905Z,10.43
2019-05-09T10:41:00.814Z,10.52
2019-05-09T10:43:51.228Z,10.56
2019-05-09T10:46:49.486Z,10.54
2019-05-09T10:49:11.690Z,10.63
2019-05-09T10:51:43.382Z,10.56
2019-05-09T10:54:15.309Z,10.52
2019-05-09T10:56:48.679Z,10.53
2019-05-09T10:59:21.007Z,10.68
2019-05-09T11:01:51.785Z,10.80
2019-05-09T11:04:23.854Z,11.06
2019-05-09T11:06:55.306Z,11.05
2019-05-09T11:09:29.094Z,11.25
2019-05-09T11:12:01.247Z,11.50
2019-05-09T11:14:37.009Z,11.87
2019-05-09T11:17:12.478Z,12.39
2019-05-09T11:19:40.052Z,12.52
2019-05-09T11:22:12.957Z,12.53
2019-05-09T11:24:48.095Z,12.49
2019-05-09T11:27:19.012Z,12.63
2019-05-09T11:29:50.082Z,13.35
2019-05-09T11:32:20.717Z,13.80
2019-05-09T11:34:52.802Z,14.35
2019-05-09T11:37:24.026Z,14.39
2019-05-09T11:39:55.091Z,14.64
2019-05-09T11:42:28.350Z,14.04
2019-05-09T11:44:59.071Z,14.42
2019-05-09T11:47:49.709Z,14.17
2019-05-09T11:50:23.209Z,14.06
2019-05-09T11:52:54.590Z,13.98
2019-05-09T11:55:35.022Z,13.67
2019-05-09T11:57:59.021Z,14.23
2019-05-09T12:00:30.480Z,14.36
2019-05-09T12:03:01.216Z,14.39
2019-05-09T12:05:32.040Z,14.30
2019-05-09T12:08:02.720Z,14.27
2019-05-09T12:10:33.793Z,13.60
2019-05-09T12:13:04.856Z,13.69
2019-05-09T12:15:35.477Z,14.04
2019-05-09T12:18:11.201Z,14.19
2019-05-09T12:20:39.272Z,14.27
2019-05-09T12:23:10.170Z,14.55
2019-05-09T12:25:40.881Z,15.15
2019-05-09T12:28:11.611Z,14.95
2019-05-09T12:30:42.318Z,14.34
2019-05-09T12:33:13.088Z,15.04
2019-05-09T12:35:44.005Z,15.76
2019-05-09T12:38:14.597Z,15.69
2019-05-09T12:40:45.339Z,15.57
2019-05-09T12:43:18.374Z,15.09
2019-05-09T12:45:52.145Z,14.87
2019-05-09T12:48:22.816Z,15.10
2019-05-09T12:50:53.539Z,15.23
2019-05-09T12:53:24.286Z,15.00
2019-05-09T12:56:00.515Z,15.03
2019-05-09T12:58:32.548Z,15.12
2019-05-09T13:01:03.221Z,15.09
2019-05-09T13:03:35.119Z,15.44
2019-05-09T13:06:07.984Z,15.31
2019-05-09T13:08:39.353Z,15.40
2019-05-09T13:11:11.642Z,15.19
2019-05-09T13:13:48.369Z,14.68
2019-05-09T13:16:47.361Z,14.80
2019-05-09T13:19:10.320Z,14.77
2019-05-09T13:21:45.071Z,15.17
2019-05-09T13:24:23.691Z,15.61
2019-05-09T13:26:55.071Z,15.67
2019-05-09T13:29:29.492Z,15.59
2019-05-09T13:31:59.296Z,16.08
2019-05-09T13:34:31.857Z,16.12
2019-05-09T13:37:05.512Z,15.58
2019-05-09T13:39:39.673Z,15.77
2019-05-09T13:42:13.453Z,15.27
2019-05-09T13:44:47.587Z,15.69
2019-05-09T13:47:18.503Z,15.55
2019-05-09T13:49:55.805Z,15.19
2019-05-09T13:52:29.819Z,15.50
2019-05-09T13:55:03.263Z,15.40
2019-05-09T13:57:41.763Z,15.53
2019-05-09T14:00:14.059Z,15.29
2019-05-09T14:02:45.448Z,15.35
2019-05-09T14:05:18.940Z,15.62
2019-05-09T14:07:55.223Z,15.56
2019-05-09T14:10:29.012Z,15.25
2019-05-09T14:13:07.018Z,15.03
2019-05-09T14:15:34.014Z,15.39
2019-05-09T14:18:05.159Z,15.87
2019-05-09T14:20:37.741Z,16.10
2019-05-09T14:23:12.816Z,16.14
2019-05-09T14:25:48.424Z,15.97
2019-05-09T14:28:20.340Z,16.13
2019-05-09T14:30:51.231Z,16.04
2019-05-09T14:33:26.803Z,15.28
2019-05-09T14:35:59.667Z,15.36
2019-05-09T14:38:32.824Z,15.43
2019-05-09T14:41:19.101Z,15.38
2019-05-09T14:43:49.590Z,14.98
2019-05-09T14:46:20.669Z,14.79
2019-05-09T14:48:53.904Z,14.85
2019-05-09T14:51:28.245Z,14.90
2019-05-09T14:54:00.900Z,14.69
2019-05-09T14:56:31.641Z,14.77
2019-05-09T14:59:02.440Z,14.79
2019-05-09T15:01:34.361Z,14.28
2019-05-09T15:04:09.057Z,14.23
2019-05-09T15:06:40.580Z,14.16
2019-05-09T15:09:20.871Z,14.12
2019-05-09T15:11:55.110Z,13.93
2019-05-09T15:14:28.964Z,13.75
2019-05-09T15:17:00.023Z,13.65
2019-05-09T15:19:37.887Z,13.54
2019-05-09T15:22:11.010Z,13.55
2019-05-09T15:24:44.101Z,13.45
2019-05-09T15:27:19.634Z,13.47
2019-05-09T15:29:50.505Z,13.37
2019-05-09T15:32:21.670Z,13.38
2019-05-09T15:34:53.411Z,13.38
2019-05-09T15:37:28.813Z,13.22
2019-05-09T15:40:02.677Z,13.13
2019-05-09T15:42:33.574Z,13.04
2019-05-09T15:45:07.816Z,13.03
2019-05-09T15:47:39.709Z,13.09
2019-05-09T15:50:22.765Z,13.22
2019-05-09T15:52:54.536Z,13.29
2019-05-09T15:55:28.289Z,13.25
2019-05-09T15:58:04.145Z,13.36
2019-05-09T16:00:38.830Z,13.42
2019-05-09T16:03:23.490Z,13.52
2019-05-09T16:05:58.475Z,13.57
2019-05-09T16:08:28.998Z,13.57
2019-05-09T16:11:01.940Z,13.57
2019-05-09T16:13:37.644Z,13.43
2019-05-09T16:16:11.959Z,13.55
2019-05-09T16:18:48.653Z,13.50
2019-05-09T16:21:31.435Z,13.49
2019-05-09T16:24:02.269Z,13.39
2019-05-09T16:26:33.905Z,13.26
2019-05-09T16:29:04.675Z,13.14
2019-05-09T16:31:39.288Z,13.24
2019-05-09T16:34:14.192Z,13.14
2019-05-09T16:36:47.988Z,13.12
2019-05-09T16:39:21.674Z,13.27
2019-05-09T16:41:59.205Z,13.26
2019-05-09T16:44:31.046Z,13.20
2019-05-09T16:47:01.896Z,13.03
2019-05-09T16:49:32.660Z,13.14
2019-05-09T16:52:03.545Z,12.96
2019-05-09T16:54:43.214Z,12.90
2019-05-09T16:57:14.022Z,12.79
2019-05-09T16:59:47.845Z,12.71
2019-05-09T17:02:25.261Z,12.68
2019-05-09T17:05:03.734Z,12.63
2019-05-09T17:07:38.318Z,12.75
2019-05-09T17:10:09.968Z,12.72
2019-05-09T17:12:42.849Z,12.72
2019-05-09T17:15:19.271Z,12.66
2019-05-09T17:17:51.754Z,12.54
2019-05-09T17:20:32.569Z,12.53
2019-05-09T17:23:15.285Z,12.56
2019-05-09T17:25:53.001Z,12.60
2019-05-09T17:28:28.418Z,12.60
2019-05-09T17:31:02.189Z,12.62
2019-05-09T17:33:37.941Z,12.46
2019-05-09T17:36:09.862Z,12.42
2019-05-09T17:38:44.014Z,12.39
2019-05-09T17:41:17.855Z,12.36
2019-05-09T17:43:52.064Z,12.28
2019-05-09T17:46:27.380Z,12.32
2019-05-09T17:49:01.938Z,12.28
2019-05-09T17:51:42.277Z,12.28
2019-05-09T17:54:15.509Z,12.15
2019-05-09T17:56:48.261Z,12.21
2019-05-09T17:59:29.296Z,12.29
2019-05-09T18:02:01.733Z,12.31
2019-05-09T18:04:39.129Z,12.27
2019-05-09T18:07:18.276Z,12.26
2019-05-09T18:09:53.743Z,12.37
2019-05-09T18:12:27.695Z,12.51
2019-05-09T18:15:07.847Z,12.45
2019-05-09T18:17:47.908Z,12.44
2019-05-09T18:20:30.105Z,12.46
2019-05-09T18:23:03.441Z,12.39
2019-05-09T18:25:41.671Z,12.36
2019-05-09T18:28:20.762Z,12.27
2019-05-09T18:30:55.660Z,12.13
2019-05-09T18:33:37.988Z,12.05
2019-05-09T18:36:09.099Z,11.88
2019-05-09T18:38:44.400Z,11.81
2019-05-09T18:41:28.416Z,11.64
2019-05-09T18:44:00.596Z,11.59
2019-05-09T18:46:39.333Z,11.42
2019-05-09T18:49:18.740Z,11.38
2019-05-09T18:52:03.902Z,11.24
2019-05-09T18:54:32.425Z,11.12
2019-05-09T18:57:09.012Z,10.98
2019-05-09T18:59:43.772Z,10.95
2019-05-09T19:02:17.151Z,10.84
2019-05-09T19:04:50.453Z,10.73
2019-05-09T19:07:22.886Z,10.65
2019-05-09T19:09:55.573Z,10.55
2019-05-09T19:12:30.321Z,10.46
2019-05-09T19:15:05.430Z,10.44
2019-05-09T19:17:53.588Z,10.39
2019-05-09T19:20:38.889Z,10.36
2019-05-09T19:23:11.496Z,10.38
2019-05-09T19:25:47.273Z,10.31
2019-05-09T19:28:24.143Z,10.26
2019-05-09T19:31:04.844Z,10.26
2019-05-09T19:33:41.700Z,10.18
2019-05-09T19:36:15.387Z,10.14
2019-05-09T19:38:48.658Z,10.13
2019-05-09T19:41:23.100Z,10.04
2019-05-09T19:43:58.404Z,10.04
2019-05-09T19:46:32.129Z,9.98
2019-05-09T19:49:03.919Z,9.94
2019-05-09T19:51:39.778Z,9.92
2019-05-09T19:54:16.037Z,9.83
2019-05-09T19:56:48.867Z,9.89
2019-05-09T19:59:22.507Z,9.86
2019-05-09T20:01:59.614Z,9.82
2019-05-09T20:04:33.578Z,9.77
2019-05-09T20:07:11.419Z,9.82
2019-05-09T20:09:53.382Z,9.81
2019-05-09T20:12:38.358Z,9.72
2019-05-09T20:15:13.244Z,9.62
2019-05-09T20:17:49.675Z,9.64
2019-05-09T20:20:20.846Z,9.64
2019-05-09T20:22:55.051Z,9.71
2019-05-09T20:25:50.076Z,9.69
2019-05-09T20:28:23.365Z,9.67
2019-05-09T20:31:00.659Z,9.63
2019-05-09T20:33:33.423Z,9.57
2019-05-09T20:36:04.624Z,9.55
2019-05-09T20:38:38.928Z,9.54
2019-05-09T20:41:12.847Z,9.55
2019-05-09T20:43:46.114Z,9.53
2019-05-09T20:46:24.394Z,9.52
2019-05-09T20:48:59.124Z,9.47
2019-05-09T20:51:40.490Z,9.44
2019-05-09T20:54:20.411Z,9.39
2019-05-09T20:56:45.974Z,9.28
2019-05-09T20:59:18.349Z,9.24
2019-05-09T21:01:51.803Z,9.11
2019-05-09T21:04:24.513Z,9.05
2019-05-09T21:06:55.688Z,9.02
2019-05-09T21:09:27.682Z,9.02
2019-05-09T21:12:00.012Z,9.15
2019-05-09T21:14:31.593Z,9.18
2019-05-09T21:17:03.573Z,9.14
2019-05-09T21:19:35.832Z,9.04
2019-05-09T21:22:07.795Z,8.97
2019-05-09T21:24:39.604Z,8.92
2019-05-09T21:27:11.511Z,8.97
2019-05-09T21:29:43.884Z,8.85
2019-05-09T21:32:15.798Z,8.76
2019-05-09T21:34:46.643Z,8.90
2019-05-09T21:37:18.581Z,8.84
2019-05-09T21:39:49.465Z,8.81
2019-05-09T21:42:20.468Z,8.82
2019-05-09T21:44:51.371Z,8.79
2019-05-09T21:47:22.281Z,8.69
2019-05-09T21:49:53.029Z,8.58
2019-05-09T21:52:23.900Z,8.54
2019-05-09T21:54:55.158Z,8.58
2019-05-09T21:57:26.029Z,8.44
2019-05-09T21:59:57.003Z,8.45
2019-05-09T22:02:27.941Z,8.38
2019-05-09T22:04:58.876Z,8.39
2019-05-09T22:07:29.897Z,8.52
2019-05-09T22:10:00.732Z,8.55
2019-05-09T22:12:31.446Z,8.56
2019-05-09T22:15:04.064Z,8.58
2019-05-09T22:17:38.523Z,8.48
2019-05-09T22:20:12.228Z,8.48
2019-05-09T22:22:42.940Z,8.44
2019-05-09T22:25:14.108Z,8.41
2019-05-09T22:27:45.070Z,8.36
2019-05-09T22:30:17.163Z,8.43
2019-05-09T22:32:48.028Z,8.41
2019-05-09T22:35:24.948Z,8.25
2019-05-09T22:37:55.849Z,8.11
2019-05-09T22:40:26.752Z,8.11
2019-05-09T22:42:57.678Z,8.16
2019-05-09T22:45:28.450Z,8.29
2019-05-09T22:47:59.268Z,8.32
2019-05-09T22:50:30.073Z,8.21
2019-05-09T22:53:07.448Z,8.10
2019-05-09T22:55:44.522Z,8.30
2019-05-09T22:58:21.307Z,8.30
2019-05-09T23:00:59.658Z,8.24
2019-05-09T23:03:36.286Z,8.17
2019-05-09T23:06:16.336Z,8.16
2019-05-09T23:08:54.236Z,8.34
2019-05-09T23:11:36.537Z,8.33
2019-05-09T23:14:18.647Z,8.26
2019-05-09T23:16:59.508Z,8.41
2019-05-09T23:19:38.653Z,8.49
2019-05-09T23:22:14.592Z,8.55
2019-05-09T23:24:54.033Z,8.65
2019-05-09T23:27:29.777Z,8.61
2019-05-09T23:30:05.318Z,8.66
2019-05-09T23:32:45.477Z,8.59
2019-05-09T23:35:21.656Z,8.51
2019-05-09T23:37:58.097Z,8.63
2019-05-09T23:40:32.822Z,8.54
2019-05-09T23:43:09.079Z,8.61
2019-05-09T23:45:45.036Z,8.43
2019-05-09T23:48:19.769Z,8.34
2019-05-09T23:50:56.438Z,8.33
2019-05-09T23:53:39.147Z,8.39
2019-05-09T23:56:33.331Z,8.50
2019-05-09T23:59:28.227Z,8.50
